sensor_id;sensor_type;location;lat;lon;timestamp;P1;durP1;ratioP1;P2;durP2;ratioP2
46689;SDS011;32423;45.398;10.874;2023-08-31T00:01:05;3.92;;;1.20;;
46689;SDS011;32423;45.398;10.874;2023-08-31T00:03:59;3.63;;;1.13;;
46689;SDS011;32423;45.398;10.874;2023-08-31T00:06:54;5.68;;;1.33;;
46689;SDS011;32423;45.398;10.874;2023-08-31T00:09:49;4.22;;;1.25;;
46689;SDS011;32423;45.398;10.874;2023-08-31T00:12:44;6.13;;;1.27;;
46689;SDS011;32423;45.398;10.874;2023-08-31T00:15:36;3.97;;;1.30;;
46689;SDS011;32423;45.398;10.874;2023-08-31T00:18:30;12.52;;;1.73;;
46689;SDS011;32423;45.398;10.874;2023-08-31T00:21:25;1.48;;;0.85;;
46689;SDS011;32423;45.398;10.874;2023-08-31T00:24:19;1.55;;;1.00;;
46689;SDS011;32423;45.398;10.874;2023-08-31T00:27:17;3.13;;;1.30;;
46689;SDS011;32423;45.398;10.874;2023-08-31T00:30:11;3.38;;;1.15;;
46689;SDS011;32423;45.398;10.874;2023-08-31T00:33:07;2.00;;;0.93;;
46689;SDS011;32423;45.398;10.874;2023-08-31T00:36:02;5.40;;;1.05;;
46689;SDS011;32423;45.398;10.874;2023-08-31T00:38:57;5.60;;;1.00;;
46689;SDS011;32423;45.398;10.874;2023-08-31T00:41:50;4.20;;;1.15;;
46689;SDS011;32423;45.398;10.874;2023-08-31T00:44:46;2.10;;;1.13;;
46689;SDS011;32423;45.398;10.874;2023-08-31T00:47:38;2.90;;;1.30;;
46689;SDS011;32423;45.398;10.874;2023-08-31T00:50:30;2.47;;;0.98;;
46689;SDS011;32423;45.398;10.874;2023-08-31T00:53:22;3.13;;;0.82;;
46689;SDS011;32423;45.398;10.874;2023-08-31T00:56:17;1.65;;;0.80;;
46689;SDS011;32423;45.398;10.874;2023-08-31T00:59:09;1.85;;;0.73;;
46689;SDS011;32423;45.398;10.874;2023-08-31T01:02:05;2.38;;;0.77;;
46689;SDS011;32423;45.398;10.874;2023-08-31T01:05:05;5.18;;;1.33;;
46689;SDS011;32423;45.398;10.874;2023-08-31T01:08:07;1.38;;;0.90;;
46689;SDS011;32423;45.398;10.874;2023-08-31T01:12:03;2.72;;;0.88;;
46689;SDS011;32423;45.398;10.874;2023-08-31T01:14:50;1.30;;;0.70;;
46689;SDS011;32423;45.398;10.874;2023-08-31T01:17:48;1.88;;;0.60;;
46689;SDS011;32423;45.398;10.874;2023-08-31T01:20:47;1.52;;;0.50;;
46689;SDS011;32423;45.398;10.874;2023-08-31T01:26:44;5.28;;;1.60;;
46689;SDS011;32423;45.398;10.874;2023-08-31T01:29:38;1.77;;;0.40;;
46689;SDS011;32423;45.398;10.874;2023-08-31T01:32:28;0.63;;;0.52;;
46689;SDS011;32423;45.398;10.874;2023-08-31T01:35:20;3.00;;;1.20;;
46689;SDS011;32423;45.398;10.874;2023-08-31T01:38:14;2.70;;;0.55;;
46689;SDS011;32423;45.398;10.874;2023-08-31T01:41:09;9.38;;;1.35;;
46689;SDS011;32423;45.398;10.874;2023-08-31T01:44:07;2.58;;;1.17;;
46689;SDS011;32423;45.398;10.874;2023-08-31T01:47:04;5.55;;;1.20;;
46689;SDS011;32423;45.398;10.874;2023-08-31T01:49:59;3.92;;;1.10;;
46689;SDS011;32423;45.398;10.874;2023-08-31T01:52:53;5.95;;;0.70;;
46689;SDS011;32423;45.398;10.874;2023-08-31T01:55:45;1.90;;;0.52;;
46689;SDS011;32423;45.398;10.874;2023-08-31T01:58:40;1.60;;;0.95;;
46689;SDS011;32423;45.398;10.874;2023-08-31T02:01:34;2.28;;;0.68;;
46689;SDS011;32423;45.398;10.874;2023-08-31T02:04:26;2.92;;;0.77;;
46689;SDS011;32423;45.398;10.874;2023-08-31T02:07:20;5.55;;;0.60;;
46689;SDS011;32423;45.398;10.874;2023-08-31T02:10:16;3.72;;;0.60;;
46689;SDS011;32423;45.398;10.874;2023-08-31T02:13:10;6.35;;;1.50;;
46689;SDS011;32423;45.398;10.874;2023-08-31T02:16:02;5.10;;;0.70;;
46689;SDS011;32423;45.398;10.874;2023-08-31T02:18:57;1.85;;;0.50;;
46689;SDS011;32423;45.398;10.874;2023-08-31T02:21:52;2.17;;;0.50;;
46689;SDS011;32423;45.398;10.874;2023-08-31T02:24:47;1.95;;;0.60;;
46689;SDS011;32423;45.398;10.874;2023-08-31T02:27:39;2.70;;;0.40;;
46689;SDS011;32423;45.398;10.874;2023-08-31T02:30:33;1.20;;;0.35;;
46689;SDS011;32423;45.398;10.874;2023-08-31T02:33:26;1.20;;;0.40;;
46689;SDS011;32423;45.398;10.874;2023-08-31T02:36:20;2.03;;;0.40;;
46689;SDS011;32423;45.398;10.874;2023-08-31T02:39:15;1.13;;;0.50;;
46689;SDS011;32423;45.398;10.874;2023-08-31T02:42:10;4.05;;;1.08;;
46689;SDS011;32423;45.398;10.874;2023-08-31T02:45:06;4.35;;;1.08;;
46689;SDS011;32423;45.398;10.874;2023-08-31T02:48:01;2.50;;;0.60;;
46689;SDS011;32423;45.398;10.874;2023-08-31T02:50:53;2.28;;;0.40;;
46689;SDS011;32423;45.398;10.874;2023-08-31T02:53:48;2.85;;;0.45;;
46689;SDS011;32423;45.398;10.874;2023-08-31T02:56:42;0.85;;;0.50;;
46689;SDS011;32423;45.398;10.874;2023-08-31T02:59:37;2.60;;;0.45;;
46689;SDS011;32423;45.398;10.874;2023-08-31T03:02:31;1.20;;;0.40;;
46689;SDS011;32423;45.398;10.874;2023-08-31T03:05:24;4.18;;;0.55;;
46689;SDS011;32423;45.398;10.874;2023-08-31T03:08:16;4.47;;;0.50;;
46689;SDS011;32423;45.398;10.874;2023-08-31T03:11:11;2.00;;;0.88;;
46689;SDS011;32423;45.398;10.874;2023-08-31T03:14:04;1.38;;;0.50;;
46689;SDS011;32423;45.398;10.874;2023-08-31T03:16:58;2.28;;;0.90;;
46689;SDS011;32423;45.398;10.874;2023-08-31T03:19:53;4.95;;;0.50;;
46689;SDS011;32423;45.398;10.874;2023-08-31T03:22:48;0.57;;;0.50;;
46689;SDS011;32423;45.398;10.874;2023-08-31T03:25:42;1.77;;;0.28;;
46689;SDS011;32423;45.398;10.874;2023-08-31T03:28:34;2.55;;;0.32;;
46689;SDS011;32423;45.398;10.874;2023-08-31T03:31:29;0.75;;;0.40;;
46689;SDS011;32423;45.398;10.874;2023-08-31T03:37:20;1.20;;;0.45;;
46689;SDS011;32423;45.398;10.874;2023-08-31T03:40:16;8.88;;;0.95;;
46689;SDS011;32423;45.398;10.874;2023-08-31T03:43:11;1.05;;;0.43;;
46689;SDS011;32423;45.398;10.874;2023-08-31T03:46:06;3.42;;;1.00;;
46689;SDS011;32423;45.398;10.874;2023-08-31T03:48:58;0.47;;;0.40;;
46689;SDS011;32423;45.398;10.874;2023-08-31T03:51:48;4.80;;;0.63;;
46689;SDS011;32423;45.398;10.874;2023-08-31T03:54:42;1.17;;;0.60;;
46689;SDS011;32423;45.398;10.874;2023-08-31T03:57:37;0.45;;;0.20;;
46689;SDS011;32423;45.398;10.874;2023-08-31T04:00:37;1.67;;;0.75;;
46689;SDS011;32423;45.398;10.874;2023-08-31T04:03:31;7.35;;;0.63;;
46689;SDS011;32423;45.398;10.874;2023-08-31T04:06:23;1.90;;;0.50;;
46689;SDS011;32423;45.398;10.874;2023-08-31T04:12:10;3.65;;;0.40;;
46689;SDS011;32423;45.398;10.874;2023-08-31T04:15:05;6.13;;;0.47;;
46689;SDS011;32423;45.398;10.874;2023-08-31T04:18:00;3.10;;;0.40;;
46689;SDS011;32423;45.398;10.874;2023-08-31T04:20:55;4.40;;;0.47;;
46689;SDS011;32423;45.398;10.874;2023-08-31T04:23:49;17.35;;;0.80;;
46689;SDS011;32423;45.398;10.874;2023-08-31T04:26:44;1.38;;;0.57;;
46689;SDS011;32423;45.398;10.874;2023-08-31T04:29:39;1.15;;;0.38;;
46689;SDS011;32423;45.398;10.874;2023-08-31T04:32:34;1.38;;;0.32;;
46689;SDS011;32423;45.398;10.874;2023-08-31T04:35:26;2.05;;;0.60;;
46689;SDS011;32423;45.398;10.874;2023-08-31T04:38:20;1.20;;;0.50;;
46689;SDS011;32423;45.398;10.874;2023-08-31T04:41:15;5.72;;;0.70;;
46689;SDS011;32423;45.398;10.874;2023-08-31T04:44:09;4.40;;;0.90;;
46689;SDS011;32423;45.398;10.874;2023-08-31T04:47:01;4.65;;;0.47;;
46689;SDS011;32423;45.398;10.874;2023-08-31T04:49:54;5.22;;;0.95;;
46689;SDS011;32423;45.398;10.874;2023-08-31T04:52:43;3.92;;;1.02;;
46689;SDS011;32423;45.398;10.874;2023-08-31T04:55:38;2.08;;;0.77;;
46689;SDS011;32423;45.398;10.874;2023-08-31T04:58:33;12.38;;;1.48;;
46689;SDS011;32423;45.398;10.874;2023-08-31T05:04:18;9.77;;;1.63;;
46689;SDS011;32423;45.398;10.874;2023-08-31T05:07:12;3.05;;;1.48;;
46689;SDS011;32423;45.398;10.874;2023-08-31T05:10:07;6.38;;;1.30;;
46689;SDS011;32423;45.398;10.874;2023-08-31T05:13:03;7.88;;;1.50;;
46689;SDS011;32423;45.398;10.874;2023-08-31T05:15:58;8.60;;;1.60;;
46689;SDS011;32423;45.398;10.874;2023-08-31T05:18:52;4.43;;;0.98;;
46689;SDS011;32423;45.398;10.874;2023-08-31T05:21:47;8.43;;;2.20;;
46689;SDS011;32423;45.398;10.874;2023-08-31T05:24:42;4.28;;;2.05;;
46689;SDS011;32423;45.398;10.874;2023-08-31T05:27:36;10.73;;;1.77;;
46689;SDS011;32423;45.398;10.874;2023-08-31T05:30:28;2.97;;;1.33;;
46689;SDS011;32423;45.398;10.874;2023-08-31T05:33:23;3.08;;;1.38;;
46689;SDS011;32423;45.398;10.874;2023-08-31T05:36:18;3.83;;;0.88;;
46689;SDS011;32423;45.398;10.874;2023-08-31T05:39:12;3.55;;;1.17;;
46689;SDS011;32423;45.398;10.874;2023-08-31T05:42:08;4.68;;;1.10;;
46689;SDS011;32423;45.398;10.874;2023-08-31T05:45:02;4.07;;;1.23;;
46689;SDS011;32423;45.398;10.874;2023-08-31T05:47:57;4.32;;;1.40;;
46689;SDS011;32423;45.398;10.874;2023-08-31T05:50:52;11.27;;;1.73;;
46689;SDS011;32423;45.398;10.874;2023-08-31T05:53:48;4.15;;;1.42;;
46689;SDS011;32423;45.398;10.874;2023-08-31T05:56:42;8.50;;;1.50;;
46689;SDS011;32423;45.398;10.874;2023-08-31T05:59:34;5.50;;;1.27;;
46689;SDS011;32423;45.398;10.874;2023-08-31T06:02:29;5.05;;;1.83;;
46689;SDS011;32423;45.398;10.874;2023-08-31T06:05:24;6.25;;;1.63;;
46689;SDS011;32423;45.398;10.874;2023-08-31T06:08:17;5.85;;;1.13;;
46689;SDS011;32423;45.398;10.874;2023-08-31T06:11:11;5.75;;;1.65;;
46689;SDS011;32423;45.398;10.874;2023-08-31T06:14:06;13.27;;;2.13;;
46689;SDS011;32423;45.398;10.874;2023-08-31T06:16:58;10.10;;;2.47;;
46689;SDS011;32423;45.398;10.874;2023-08-31T06:19:53;3.25;;;1.90;;
46689;SDS011;32423;45.398;10.874;2023-08-31T06:22:46;7.50;;;1.27;;
46689;SDS011;32423;45.398;10.874;2023-08-31T06:25:40;7.13;;;1.70;;
46689;SDS011;32423;45.398;10.874;2023-08-31T06:28:35;5.95;;;1.73;;
46689;SDS011;32423;45.398;10.874;2023-08-31T06:31:27;6.32;;;1.83;;
46689;SDS011;32423;45.398;10.874;2023-08-31T06:34:19;13.02;;;2.30;;
46689;SDS011;32423;45.398;10.874;2023-08-31T06:37:14;7.82;;;1.80;;
46689;SDS011;32423;45.398;10.874;2023-08-31T06:40:08;3.88;;;1.75;;
46689;SDS011;32423;45.398;10.874;2023-08-31T06:42:58;26.85;;;2.35;;
46689;SDS011;32423;45.398;10.874;2023-08-31T06:45:53;8.27;;;1.73;;
46689;SDS011;32423;45.398;10.874;2023-08-31T06:48:48;5.82;;;1.90;;
46689;SDS011;32423;45.398;10.874;2023-08-31T06:51:42;3.20;;;1.73;;
46689;SDS011;32423;45.398;10.874;2023-08-31T06:54:37;3.90;;;1.45;;
46689;SDS011;32423;45.398;10.874;2023-08-31T06:57:32;6.05;;;1.60;;
46689;SDS011;32423;45.398;10.874;2023-08-31T07:00:26;1.70;;;1.50;;
46689;SDS011;32423;45.398;10.874;2023-08-31T07:03:21;6.75;;;2.00;;
46689;SDS011;32423;45.398;10.874;2023-08-31T07:06:16;5.13;;;1.70;;
46689;SDS011;32423;45.398;10.874;2023-08-31T07:09:08;6.13;;;1.70;;
46689;SDS011;32423;45.398;10.874;2023-08-31T07:12:02;6.05;;;2.22;;
46689;SDS011;32423;45.398;10.874;2023-08-31T07:14:55;6.40;;;2.58;;
46689;SDS011;32423;45.398;10.874;2023-08-31T07:17:50;6.90;;;3.20;;
46689;SDS011;32423;45.398;10.874;2023-08-31T07:20:45;5.80;;;2.25;;
46689;SDS011;32423;45.398;10.874;2023-08-31T07:23:40;4.05;;;1.88;;
46689;SDS011;32423;45.398;10.874;2023-08-31T07:26:34;2.42;;;1.33;;
46689;SDS011;32423;45.398;10.874;2023-08-31T07:29:28;2.05;;;1.60;;
46689;SDS011;32423;45.398;10.874;2023-08-31T07:32:21;4.47;;;1.58;;
46689;SDS011;32423;45.398;10.874;2023-08-31T07:35:12;2.50;;;1.20;;
46689;SDS011;32423;45.398;10.874;2023-08-31T07:38:07;2.33;;;1.30;;
46689;SDS011;32423;45.398;10.874;2023-08-31T07:41:02;4.07;;;1.48;;
46689;SDS011;32423;45.398;10.874;2023-08-31T07:43:56;3.33;;;0.80;;
46689;SDS011;32423;45.398;10.874;2023-08-31T07:46:52;3.95;;;1.40;;
46689;SDS011;32423;45.398;10.874;2023-08-31T07:49:46;2.13;;;0.80;;
46689;SDS011;32423;45.398;10.874;2023-08-31T07:52:40;4.13;;;1.08;;
46689;SDS011;32423;45.398;10.874;2023-08-31T07:55:35;5.25;;;1.35;;
46689;SDS011;32423;45.398;10.874;2023-08-31T08:01:17;5.18;;;0.90;;
46689;SDS011;32423;45.398;10.874;2023-08-31T08:07:01;2.58;;;0.88;;
46689;SDS011;32423;45.398;10.874;2023-08-31T08:09:56;3.47;;;0.95;;
46689;SDS011;32423;45.398;10.874;2023-08-31T08:12:50;5.18;;;1.20;;
46689;SDS011;32423;45.398;10.874;2023-08-31T08:15:40;6.47;;;1.35;;
46689;SDS011;32423;45.398;10.874;2023-08-31T08:18:35;1.75;;;1.15;;
46689;SDS011;32423;45.398;10.874;2023-08-31T08:21:27;3.63;;;1.02;;
46689;SDS011;32423;45.398;10.874;2023-08-31T08:24:24;1.23;;;0.80;;
46689;SDS011;32423;45.398;10.874;2023-08-31T08:27:18;6.25;;;1.10;;
46689;SDS011;32423;45.398;10.874;2023-08-31T08:30:13;1.00;;;0.77;;
46689;SDS011;32423;45.398;10.874;2023-08-31T08:33:08;2.17;;;1.10;;
46689;SDS011;32423;45.398;10.874;2023-08-31T08:36:00;3.60;;;1.25;;
46689;SDS011;32423;45.398;10.874;2023-08-31T08:38:55;2.22;;;0.90;;
46689;SDS011;32423;45.398;10.874;2023-08-31T08:41:47;2.00;;;1.30;;
46689;SDS011;32423;45.398;10.874;2023-08-31T08:44:42;1.50;;;1.08;;
46689;SDS011;32423;45.398;10.874;2023-08-31T08:47:38;4.35;;;1.08;;
46689;SDS011;32423;45.398;10.874;2023-08-31T08:50:34;4.38;;;1.00;;
46689;SDS011;32423;45.398;10.874;2023-08-31T08:53:27;5.82;;;0.75;;
46689;SDS011;32423;45.398;10.874;2023-08-31T08:56:22;2.83;;;0.73;;
46689;SDS011;32423;45.398;10.874;2023-08-31T08:59:16;1.10;;;0.70;;
46689;SDS011;32423;45.398;10.874;2023-08-31T09:02:11;7.07;;;1.10;;
46689;SDS011;32423;45.398;10.874;2023-08-31T09:05:03;1.88;;;0.63;;
46689;SDS011;32423;45.398;10.874;2023-08-31T09:08:10;9.13;;;1.13;;
46689;SDS011;32423;45.398;10.874;2023-08-31T09:11:04;2.47;;;0.60;;
46689;SDS011;32423;45.398;10.874;2023-08-31T09:13:57;2.08;;;0.93;;
46689;SDS011;32423;45.398;10.874;2023-08-31T09:16:51;1.65;;;1.20;;
46689;SDS011;32423;45.398;10.874;2023-08-31T09:19:44;0.82;;;0.52;;
46689;SDS011;32423;45.398;10.874;2023-08-31T09:22:47;7.03;;;1.27;;
46689;SDS011;32423;45.398;10.874;2023-08-31T09:25:48;5.78;;;1.73;;
46689;SDS011;32423;45.398;10.874;2023-08-31T09:28:40;2.58;;;1.20;;
46689;SDS011;32423;45.398;10.874;2023-08-31T09:31:35;3.35;;;0.85;;
46689;SDS011;32423;45.398;10.874;2023-08-31T09:34:32;3.20;;;0.90;;
46689;SDS011;32423;45.398;10.874;2023-08-31T09:37:28;1.52;;;1.02;;
46689;SDS011;32423;45.398;10.874;2023-08-31T09:40:18;2.38;;;1.33;;
46689;SDS011;32423;45.398;10.874;2023-08-31T09:43:13;2.28;;;1.20;;
46689;SDS011;32423;45.398;10.874;2023-08-31T09:46:15;7.28;;;1.15;;
46689;SDS011;32423;45.398;10.874;2023-08-31T09:49:10;5.28;;;1.00;;
46689;SDS011;32423;45.398;10.874;2023-08-31T09:52:00;6.53;;;0.90;;
46689;SDS011;32423;45.398;10.874;2023-08-31T09:54:57;0.88;;;0.70;;
46689;SDS011;32423;45.398;10.874;2023-08-31T09:57:55;1.35;;;1.00;;
46689;SDS011;32423;45.398;10.874;2023-08-31T10:00:47;2.08;;;1.10;;
46689;SDS011;32423;45.398;10.874;2023-08-31T10:03:43;4.30;;;0.80;;
46689;SDS011;32423;45.398;10.874;2023-08-31T10:06:37;14.23;;;3.85;;
46689;SDS011;32423;45.398;10.874;2023-08-31T10:09:32;64.47;;;13.75;;
46689;SDS011;32423;45.398;10.874;2023-08-31T10:12:27;19.70;;;4.43;;
46689;SDS011;32423;45.398;10.874;2023-08-31T10:15:23;5.78;;;2.40;;
46689;SDS011;32423;45.398;10.874;2023-08-31T10:18:30;10.82;;;2.08;;
46689;SDS011;32423;45.398;10.874;2023-08-31T10:21:25;1.75;;;0.90;;
46689;SDS011;32423;45.398;10.874;2023-08-31T10:24:18;2.78;;;1.00;;
46689;SDS011;32423;45.398;10.874;2023-08-31T10:27:31;2.45;;;0.60;;
46689;SDS011;32423;45.398;10.874;2023-08-31T10:30:31;1.92;;;0.65;;
46689;SDS011;32423;45.398;10.874;2023-08-31T10:33:26;0.93;;;0.57;;
46689;SDS011;32423;45.398;10.874;2023-08-31T10:36:20;5.57;;;1.02;;
46689;SDS011;32423;45.398;10.874;2023-08-31T10:39:25;6.10;;;0.73;;
46689;SDS011;32423;45.398;10.874;2023-08-31T10:42:30;4.32;;;0.88;;
46689;SDS011;32423;45.398;10.874;2023-08-31T10:45:25;2.42;;;1.00;;
46689;SDS011;32423;45.398;10.874;2023-08-31T10:48:20;2.20;;;0.95;;
46689;SDS011;32423;45.398;10.874;2023-08-31T10:51:15;3.97;;;1.23;;
46689;SDS011;32423;45.398;10.874;2023-08-31T10:54:10;1.20;;;1.02;;
46689;SDS011;32423;45.398;10.874;2023-08-31T10:57:11;2.10;;;0.60;;
46689;SDS011;32423;45.398;10.874;2023-08-31T11:00:05;4.50;;;0.68;;
46689;SDS011;32423;45.398;10.874;2023-08-31T11:03:01;2.15;;;0.63;;
46689;SDS011;32423;45.398;10.874;2023-08-31T11:05:57;1.58;;;0.93;;
46689;SDS011;32423;45.398;10.874;2023-08-31T11:08:46;4.80;;;0.93;;
46689;SDS011;32423;45.398;10.874;2023-08-31T11:11:41;5.43;;;0.85;;
46689;SDS011;32423;45.398;10.874;2023-08-31T11:14:36;3.20;;;0.73;;
46689;SDS011;32423;45.398;10.874;2023-08-31T11:17:30;4.65;;;0.82;;
46689;SDS011;32423;45.398;10.874;2023-08-31T11:20:25;2.42;;;0.50;;
46689;SDS011;32423;45.398;10.874;2023-08-31T11:23:19;5.28;;;0.88;;
46689;SDS011;32423;45.398;10.874;2023-08-31T11:26:14;4.30;;;1.27;;
46689;SDS011;32423;45.398;10.874;2023-08-31T11:29:09;9.35;;;0.60;;
46689;SDS011;32423;45.398;10.874;2023-08-31T11:32:01;10.02;;;1.10;;
46689;SDS011;32423;45.398;10.874;2023-08-31T11:34:56;1.98;;;0.73;;
46689;SDS011;32423;45.398;10.874;2023-08-31T11:37:51;2.08;;;0.70;;
46689;SDS011;32423;45.398;10.874;2023-08-31T11:40:49;4.13;;;0.80;;
46689;SDS011;32423;45.398;10.874;2023-08-31T11:43:47;3.83;;;0.93;;
46689;SDS011;32423;45.398;10.874;2023-08-31T11:46:42;2.20;;;0.70;;
46689;SDS011;32423;45.398;10.874;2023-08-31T11:49:38;14.73;;;2.97;;
46689;SDS011;32423;45.398;10.874;2023-08-31T11:52:34;7.35;;;1.52;;
46689;SDS011;32423;45.398;10.874;2023-08-31T11:55:26;2.72;;;1.00;;
46689;SDS011;32423;45.398;10.874;2023-08-31T11:58:21;6.75;;;1.05;;
46689;SDS011;32423;45.398;10.874;2023-08-31T12:01:20;3.00;;;0.90;;
46689;SDS011;32423;45.398;10.874;2023-08-31T12:04:10;6.47;;;0.98;;
46689;SDS011;32423;45.398;10.874;2023-08-31T12:07:06;8.05;;;1.10;;
46689;SDS011;32423;45.398;10.874;2023-08-31T12:10:03;98.57;;;21.98;;
46689;SDS011;32423;45.398;10.874;2023-08-31T12:13:07;41.08;;;11.13;;
46689;SDS011;32423;45.398;10.874;2023-08-31T12:15:57;40.92;;;8.18;;
46689;SDS011;32423;45.398;10.874;2023-08-31T12:18:51;24.55;;;8.18;;
46689;SDS011;32423;45.398;10.874;2023-08-31T12:21:50;23.17;;;6.80;;
46689;SDS011;32423;45.398;10.874;2023-08-31T12:24:44;42.70;;;10.43;;
46689;SDS011;32423;45.398;10.874;2023-08-31T12:27:38;26.90;;;7.53;;
46689;SDS011;32423;45.398;10.874;2023-08-31T12:30:33;47.65;;;13.07;;
46689;SDS011;32423;45.398;10.874;2023-08-31T12:33:28;28.75;;;8.63;;
46689;SDS011;32423;45.398;10.874;2023-08-31T12:36:18;27.45;;;8.48;;
46689;SDS011;32423;45.398;10.874;2023-08-31T12:39:13;18.75;;;6.22;;
46689;SDS011;32423;45.398;10.874;2023-08-31T12:42:08;11.52;;;3.58;;
46689;SDS011;32423;45.398;10.874;2023-08-31T12:45:00;4.85;;;2.13;;
46689;SDS011;32423;45.398;10.874;2023-08-31T12:47:50;16.73;;;4.32;;
46689;SDS011;32423;45.398;10.874;2023-08-31T12:50:45;3.55;;;1.88;;
46689;SDS011;32423;45.398;10.874;2023-08-31T12:53:40;5.15;;;1.90;;
46689;SDS011;32423;45.398;10.874;2023-08-31T12:56:35;6.70;;;1.90;;
46689;SDS011;32423;45.398;10.874;2023-08-31T12:59:27;7.47;;;2.70;;
46689;SDS011;32423;45.398;10.874;2023-08-31T13:02:22;10.98;;;3.63;;
46689;SDS011;32423;45.398;10.874;2023-08-31T13:05:17;4.82;;;2.03;;
46689;SDS011;32423;45.398;10.874;2023-08-31T13:08:09;7.57;;;2.25;;
46689;SDS011;32423;45.398;10.874;2023-08-31T13:10:59;9.55;;;2.20;;
46689;SDS011;32423;45.398;10.874;2023-08-31T13:13:50;1.70;;;0.73;;
46689;SDS011;32423;45.398;10.874;2023-08-31T13:19:37;2.17;;;0.60;;
46689;SDS011;32423;45.398;10.874;2023-08-31T13:22:27;3.75;;;1.00;;
46689;SDS011;32423;45.398;10.874;2023-08-31T13:25:21;3.00;;;1.27;;
46689;SDS011;32423;45.398;10.874;2023-08-31T13:28:13;1.98;;;1.40;;
46689;SDS011;32423;45.398;10.874;2023-08-31T13:31:05;9.73;;;2.03;;
46689;SDS011;32423;45.398;10.874;2023-08-31T13:36:50;3.72;;;1.25;;
46689;SDS011;32423;45.398;10.874;2023-08-31T13:39:44;2.20;;;0.75;;
46689;SDS011;32423;45.398;10.874;2023-08-31T13:42:48;2.85;;;1.38;;
46689;SDS011;32423;45.398;10.874;2023-08-31T13:45:52;5.03;;;1.83;;
46689;SDS011;32423;45.398;10.874;2023-08-31T13:48:44;1.92;;;0.85;;
46689;SDS011;32423;45.398;10.874;2023-08-31T13:51:35;3.08;;;1.13;;
46689;SDS011;32423;45.398;10.874;2023-08-31T13:54:27;2.72;;;1.42;;
46689;SDS011;32423;45.398;10.874;2023-08-31T14:00:09;2.10;;;1.40;;
46689;SDS011;32423;45.398;10.874;2023-08-31T14:03:02;2.38;;;0.95;;
46689;SDS011;32423;45.398;10.874;2023-08-31T14:05:54;4.03;;;0.80;;
46689;SDS011;32423;45.398;10.874;2023-08-31T14:08:46;6.00;;;0.98;;
46689;SDS011;32423;45.398;10.874;2023-08-31T14:11:39;3.30;;;1.45;;
46689;SDS011;32423;45.398;10.874;2023-08-31T14:14:31;4.95;;;1.20;;
46689;SDS011;32423;45.398;10.874;2023-08-31T14:17:23;3.25;;;0.90;;
46689;SDS011;32423;45.398;10.874;2023-08-31T14:20:18;4.00;;;1.05;;
46689;SDS011;32423;45.398;10.874;2023-08-31T14:26:05;5.03;;;1.05;;
46689;SDS011;32423;45.398;10.874;2023-08-31T14:28:56;5.07;;;1.00;;
46689;SDS011;32423;45.398;10.874;2023-08-31T14:34:35;5.93;;;1.15;;
46689;SDS011;32423;45.398;10.874;2023-08-31T14:37:30;2.95;;;1.10;;
46689;SDS011;32423;45.398;10.874;2023-08-31T14:40:19;1.92;;;0.60;;
46689;SDS011;32423;45.398;10.874;2023-08-31T14:43:11;3.75;;;0.85;;
46689;SDS011;32423;45.398;10.874;2023-08-31T14:48:55;2.17;;;0.80;;
46689;SDS011;32423;45.398;10.874;2023-08-31T14:51:48;4.93;;;0.75;;
46689;SDS011;32423;45.398;10.874;2023-08-31T14:57:34;1.63;;;0.82;;
46689;SDS011;32423;45.398;10.874;2023-08-31T15:00:26;2.78;;;1.05;;
46689;SDS011;32423;45.398;10.874;2023-08-31T15:03:21;1.75;;;0.50;;
46689;SDS011;32423;45.398;10.874;2023-08-31T15:06:13;2.15;;;0.73;;
46689;SDS011;32423;45.398;10.874;2023-08-31T15:09:07;2.28;;;0.75;;
46689;SDS011;32423;45.398;10.874;2023-08-31T15:12:02;2.95;;;0.90;;
46689;SDS011;32423;45.398;10.874;2023-08-31T15:14:57;3.55;;;1.05;;
46689;SDS011;32423;45.398;10.874;2023-08-31T15:17:51;2.05;;;0.68;;
46689;SDS011;32423;45.398;10.874;2023-08-31T15:20:43;3.60;;;1.25;;
46689;SDS011;32423;45.398;10.874;2023-08-31T15:23:36;2.90;;;0.80;;
46689;SDS011;32423;45.398;10.874;2023-08-31T15:26:30;1.58;;;0.80;;
46689;SDS011;32423;45.398;10.874;2023-08-31T15:29:22;1.42;;;0.85;;
46689;SDS011;32423;45.398;10.874;2023-08-31T15:32:17;3.38;;;1.20;;
46689;SDS011;32423;45.398;10.874;2023-08-31T15:38:03;1.70;;;0.65;;
46689;SDS011;32423;45.398;10.874;2023-08-31T15:40:55;4.07;;;0.75;;
46689;SDS011;32423;45.398;10.874;2023-08-31T15:43:50;3.00;;;0.50;;
46689;SDS011;32423;45.398;10.874;2023-08-31T15:46:45;1.15;;;0.60;;
46689;SDS011;32423;45.398;10.874;2023-08-31T15:49:39;6.70;;;1.15;;
46689;SDS011;32423;45.398;10.874;2023-08-31T15:52:29;1.48;;;0.70;;
46689;SDS011;32423;45.398;10.874;2023-08-31T15:55:23;4.45;;;0.50;;
46689;SDS011;32423;45.398;10.874;2023-08-31T15:58:18;4.15;;;0.98;;
46689;SDS011;32423;45.398;10.874;2023-08-31T16:01:13;2.00;;;0.90;;
46689;SDS011;32423;45.398;10.874;2023-08-31T16:04:07;3.70;;;0.50;;
46689;SDS011;32423;45.398;10.874;2023-08-31T16:06:59;2.15;;;0.50;;
46689;SDS011;32423;45.398;10.874;2023-08-31T16:09:54;2.47;;;0.90;;
46689;SDS011;32423;45.398;10.874;2023-08-31T16:12:49;0.68;;;0.32;;
46689;SDS011;32423;45.398;10.874;2023-08-31T16:15:44;2.15;;;0.60;;
46689;SDS011;32423;45.398;10.874;2023-08-31T16:18:38;4.13;;;0.98;;
46689;SDS011;32423;45.398;10.874;2023-08-31T16:24:25;1.10;;;0.55;;
46689;SDS011;32423;45.398;10.874;2023-08-31T16:27:17;3.25;;;0.75;;
46689;SDS011;32423;45.398;10.874;2023-08-31T16:33:04;5.85;;;0.88;;
46689;SDS011;32423;45.398;10.874;2023-08-31T16:35:59;1.77;;;0.50;;
46689;SDS011;32423;45.398;10.874;2023-08-31T16:38:55;0.88;;;0.40;;
46689;SDS011;32423;45.398;10.874;2023-08-31T16:41:49;4.20;;;0.90;;
46689;SDS011;32423;45.398;10.874;2023-08-31T16:47:36;2.45;;;0.75;;
46689;SDS011;32423;45.398;10.874;2023-08-31T16:50:34;6.25;;;0.60;;
46689;SDS011;32423;45.398;10.874;2023-08-31T16:53:29;5.68;;;0.60;;
46689;SDS011;32423;45.398;10.874;2023-08-31T16:56:23;0.98;;;0.60;;
46689;SDS011;32423;45.398;10.874;2023-08-31T16:59:18;2.38;;;0.40;;
46689;SDS011;32423;45.398;10.874;2023-08-31T17:02:12;3.47;;;0.80;;
46689;SDS011;32423;45.398;10.874;2023-08-31T17:05:07;5.85;;;0.80;;
46689;SDS011;32423;45.398;10.874;2023-08-31T17:10:53;0.98;;;0.70;;
46689;SDS011;32423;45.398;10.874;2023-08-31T17:13:48;4.68;;;0.70;;
46689;SDS011;32423;45.398;10.874;2023-08-31T17:19:32;1.63;;;0.70;;
46689;SDS011;32423;45.398;10.874;2023-08-31T17:22:26;3.95;;;0.90;;
46689;SDS011;32423;45.398;10.874;2023-08-31T17:28:10;0.63;;;0.50;;
46689;SDS011;32423;45.398;10.874;2023-08-31T17:31:00;4.97;;;0.98;;
46689;SDS011;32423;45.398;10.874;2023-08-31T17:33:51;8.40;;;0.90;;
46689;SDS011;32423;45.398;10.874;2023-08-31T17:36:45;7.72;;;1.52;;
46689;SDS011;32423;45.398;10.874;2023-08-31T17:39:38;8.77;;;1.95;;
46689;SDS011;32423;45.398;10.874;2023-08-31T17:42:30;13.88;;;3.08;;
46689;SDS011;32423;45.398;10.874;2023-08-31T17:45:24;8.98;;;2.35;;
46689;SDS011;32423;45.398;10.874;2023-08-31T17:48:19;20.65;;;3.00;;
46689;SDS011;32423;45.398;10.874;2023-08-31T17:51:13;10.73;;;3.15;;
46689;SDS011;32423;45.398;10.874;2023-08-31T17:54:08;14.95;;;2.75;;
46689;SDS011;32423;45.398;10.874;2023-08-31T17:57:03;10.20;;;3.30;;
46689;SDS011;32423;45.398;10.874;2023-08-31T17:59:56;7.40;;;4.43;;
46689;SDS011;32423;45.398;10.874;2023-08-31T18:02:48;8.18;;;2.63;;
46689;SDS011;32423;45.398;10.874;2023-08-31T18:08:43;6.65;;;1.88;;
46689;SDS011;32423;45.398;10.874;2023-08-31T18:11:38;4.95;;;1.80;;
46689;SDS011;32423;45.398;10.874;2023-08-31T18:14:30;5.57;;;1.70;;